createdAt,value
2024-03-07T00:00:19.917Z,9.83
2024-03-07T00:02:49.819Z,5.40
2024-03-07T00:05:18.254Z,11.97
2024-03-07T00:07:45.461Z,9.47
2024-03-07T00:10:12.457Z,7.73
2024-03-07T00:12:41.942Z,7.60
2024-03-07T00:15:12.072Z,12.00
2024-03-07T00:17:40.127Z,7.07
2024-03-07T00:20:10.752Z,6.87
2024-03-07T00:22:37.612Z,10.23
2024-03-07T00:25:06.681Z,7.67
2024-03-07T00:27:33.976Z,5.93
2024-03-07T00:30:01.038Z,8.90
2024-03-07T00:32:31.347Z,7.43
2024-03-07T00:34:58.535Z,6.07
2024-03-07T00:37:28.117Z,8.87
2024-03-07T00:39:55.153Z,6.87
2024-03-07T00:42:23.495Z,8.10
2024-03-07T00:44:53.253Z,9.00
2024-03-07T00:47:20.082Z,9.37
2024-03-07T00:49:49.962Z,10.73
2024-03-07T00:52:16.858Z,10.13
2024-03-07T00:54:44.252Z,13.50
2024-03-07T00:57:10.957Z,16.23
2024-03-07T00:59:37.755Z,15.77
2024-03-07T01:02:04.827Z,16.53
2024-03-07T01:04:34.961Z,13.23
2024-03-07T01:07:02.392Z,8.87
2024-03-07T01:09:30.076Z,12.97
2024-03-07T01:11:57.005Z,9.77
2024-03-07T01:14:23.999Z,8.73
2024-03-07T01:16:50.722Z,10.43
2024-03-07T01:19:17.535Z,9.87
2024-03-07T01:21:44.280Z,18.47
2024-03-07T01:24:10.785Z,11.07
2024-03-07T01:26:37.591Z,15.47
2024-03-07T01:29:05.710Z,9.73
2024-03-07T01:31:32.399Z,11.77
2024-03-07T01:33:58.969Z,11.07
2024-03-07T01:36:25.525Z,9.97
2024-03-07T01:38:52.908Z,12.53
2024-03-07T01:41:20.403Z,9.30
2024-03-07T01:43:47.312Z,9.20
2024-03-07T01:46:15.244Z,7.97
2024-03-07T01:48:42.234Z,10.47
2024-03-07T01:51:10.025Z,6.57
2024-03-07T01:53:37.651Z,8.00
2024-03-07T01:56:05.600Z,12.73
2024-03-07T01:58:33.553Z,15.37
2024-03-07T02:01:01.132Z,9.93
2024-03-07T02:03:28.300Z,13.10
2024-03-07T02:05:55.230Z,10.60
2024-03-07T02:08:22.017Z,11.07
2024-03-07T02:10:50.026Z,8.67
2024-03-07T02:13:17.227Z,8.40
2024-03-07T02:15:44.255Z,7.53
2024-03-07T02:18:11.869Z,11.47
2024-03-07T02:20:38.970Z,13.97
2024-03-07T02:23:06.064Z,14.60
2024-03-07T02:25:33.490Z,11.50
2024-03-07T02:28:00.472Z,9.40
2024-03-07T02:30:27.112Z,11.33
2024-03-07T02:32:56.777Z,11.23
2024-03-07T02:35:24.826Z,12.27
2024-03-07T02:37:52.179Z,14.27
2024-03-07T02:40:19.036Z,12.43
2024-03-07T02:42:45.681Z,8.50
2024-03-07T02:45:16.328Z,7.93
2024-03-07T02:47:45.485Z,12.10
2024-03-07T02:50:12.646Z,10.00
2024-03-07T02:52:40.240Z,6.50
2024-03-07T02:55:07.446Z,12.87
2024-03-07T02:57:34.069Z,10.50
2024-03-07T03:00:00.850Z,11.27
2024-03-07T03:02:27.567Z,11.40
2024-03-07T03:04:55.755Z,11.80
2024-03-07T03:07:22.475Z,11.47
2024-03-07T03:09:50.250Z,18.77
2024-03-07T03:12:17.167Z,11.67
2024-03-07T03:14:44.613Z,11.77
2024-03-07T03:17:12.506Z,13.93
2024-03-07T03:19:39.204Z,13.50
2024-03-07T03:22:05.901Z,16.37
2024-03-07T03:24:32.617Z,17.77
2024-03-07T03:26:59.368Z,14.03
2024-03-07T03:29:26.201Z,18.60
2024-03-07T03:31:53.041Z,16.97
2024-03-07T03:34:19.638Z,25.53
2024-03-07T03:36:46.201Z,20.87
2024-03-07T03:39:14.728Z,19.20
2024-03-07T03:41:41.698Z,25.63
2024-03-07T03:44:08.958Z,24.90
2024-03-07T03:46:35.660Z,19.27
2024-03-07T03:49:02.313Z,19.23
2024-03-07T03:51:29.274Z,28.87
2024-03-07T03:53:55.977Z,22.40
2024-03-07T03:56:22.968Z,26.20
2024-03-07T03:58:49.774Z,17.40
2024-03-07T04:01:17.625Z,24.03
2024-03-07T04:03:48.010Z,17.43
2024-03-07T04:06:15.288Z,14.37
2024-03-07T04:08:41.991Z,20.73
2024-03-07T04:11:11.693Z,19.47
2024-03-07T04:13:38.593Z,17.90
2024-03-07T04:16:05.863Z,23.77
2024-03-07T04:18:33.789Z,19.73
2024-03-07T04:21:01.120Z,18.23
2024-03-07T04:23:29.023Z,15.57
2024-03-07T04:25:57.569Z,13.83
2024-03-07T04:28:24.230Z,18.40
2024-03-07T04:30:50.821Z,16.33
2024-03-07T04:33:17.602Z,13.53
2024-03-07T04:35:44.501Z,13.93
2024-03-07T04:38:12.839Z,8.73
2024-03-07T04:40:40.297Z,11.70
2024-03-07T04:43:07.061Z,19.80
2024-03-07T04:45:33.634Z,19.83
2024-03-07T04:48:00.643Z,14.40
2024-03-07T04:50:27.836Z,16.67
2024-03-07T04:52:54.624Z,16.10
2024-03-07T04:55:21.214Z,20.13
2024-03-07T04:57:48.287Z,25.13
2024-03-07T05:00:17.783Z,22.20
2024-03-07T05:02:47.901Z,26.23
2024-03-07T05:05:15.326Z,23.33
2024-03-07T05:07:43.021Z,24.43
2024-03-07T05:10:10.191Z,27.67
2024-03-07T05:12:38.759Z,23.60
2024-03-07T05:15:06.867Z,24.73
2024-03-07T05:17:36.301Z,29.87
2024-03-07T05:20:04.714Z,18.03
2024-03-07T05:22:31.797Z,19.70
2024-03-07T05:25:00.143Z,20.47
2024-03-07T05:27:29.180Z,19.77
2024-03-07T05:29:56.719Z,20.77
2024-03-07T05:32:25.612Z,19.67
2024-03-07T05:34:54.637Z,35.37
2024-03-07T05:37:25.093Z,23.43
2024-03-07T05:39:53.347Z,23.47
2024-03-07T05:42:20.801Z,29.77
2024-03-07T05:44:47.596Z,28.43
2024-03-07T05:47:15.123Z,28.83
2024-03-07T05:49:41.873Z,18.93
2024-03-07T05:52:08.742Z,26.90
2024-03-07T05:54:36.521Z,29.20
2024-03-07T05:57:03.731Z,26.57
2024-03-07T05:59:30.561Z,20.20
2024-03-07T06:01:57.276Z,22.20
2024-03-07T06:04:23.929Z,24.10
2024-03-07T06:06:50.630Z,29.97
2024-03-07T06:09:22.702Z,27.97
2024-03-07T06:11:50.603Z,20.97
2024-03-07T06:14:18.584Z,24.73
2024-03-07T06:16:45.728Z,21.20
2024-03-07T06:19:12.774Z,26.60
2024-03-07T06:21:42.277Z,24.80
2024-03-07T06:24:11.650Z,43.87
2024-03-07T06:26:47.825Z,27.63
2024-03-07T06:29:18.865Z,20.43
2024-03-07T06:31:49.885Z,16.63
2024-03-07T06:34:16.650Z,25.90
2024-03-07T06:36:43.338Z,22.93
2024-03-07T06:39:13.581Z,30.00
2024-03-07T06:41:41.465Z,27.27
2024-03-07T06:44:09.050Z,23.27
2024-03-07T06:46:36.048Z,27.33
2024-03-07T06:49:03.169Z,22.53
2024-03-07T06:51:30.206Z,28.13
2024-03-07T06:53:57.793Z,22.23
2024-03-07T06:56:27.491Z,29.23
2024-03-07T06:58:54.432Z,20.47
2024-03-07T07:01:21.449Z,28.67
2024-03-07T07:03:49.623Z,28.33
2024-03-07T07:06:17.584Z,29.20
2024-03-07T07:08:46.392Z,27.63
2024-03-07T07:11:13.681Z,22.47
2024-03-07T07:13:40.612Z,24.73
2024-03-07T07:16:07.500Z,25.23
2024-03-07T07:18:35.122Z,22.03
2024-03-07T07:21:04.676Z,21.73
2024-03-07T07:23:31.564Z,18.30
2024-03-07T07:25:58.580Z,22.17
2024-03-07T07:28:25.652Z,21.47
2024-03-07T07:30:52.332Z,25.03
2024-03-07T07:33:19.661Z,18.00
2024-03-07T07:35:47.724Z,17.77
2024-03-07T07:38:16.263Z,18.17
2024-03-07T07:40:43.391Z,22.93
2024-03-07T07:43:12.981Z,22.77
2024-03-07T07:45:40.364Z,28.17
2024-03-07T07:48:07.407Z,27.47
2024-03-07T07:50:36.136Z,19.80
2024-03-07T07:53:06.539Z,34.27
2024-03-07T07:55:33.208Z,17.23
2024-03-07T07:58:01.362Z,22.93
2024-03-07T08:00:32.527Z,21.57
2024-03-07T08:03:05.104Z,27.37
2024-03-07T08:05:34.365Z,23.57
2024-03-07T08:08:07.800Z,29.97
2024-03-07T08:10:36.746Z,25.97
2024-03-07T08:13:04.881Z,26.80
2024-03-07T08:15:32.140Z,21.43
2024-03-07T08:18:00.909Z,37.83
2024-03-07T08:20:28.916Z,23.47
2024-03-07T08:22:56.736Z,26.10
2024-03-07T08:25:26.074Z,25.37
2024-03-07T08:28:02.371Z,25.19
2024-03-07T08:30:30.586Z,28.63
2024-03-07T08:32:58.581Z,29.63
2024-03-07T08:35:26.061Z,18.20
2024-03-07T08:37:54.999Z,30.70
2024-03-07T08:40:27.373Z,25.33
2024-03-07T08:42:55.778Z,14.77
2024-03-07T08:45:22.975Z,24.70
2024-03-07T08:47:56.285Z,29.00
2024-03-07T08:50:24.207Z,24.03
2024-03-07T08:52:51.747Z,14.03
2024-03-07T08:55:20.775Z,18.63
2024-03-07T08:57:49.844Z,18.67
2024-03-07T09:00:24.181Z,15.00
2024-03-07T09:03:00.780Z,18.23
2024-03-07T09:05:29.324Z,14.83
2024-03-07T09:07:56.759Z,17.67
2024-03-07T09:10:25.414Z,16.43
2024-03-07T09:12:53.746Z,12.93
2024-03-07T09:15:23.570Z,14.13
2024-03-07T09:17:51.058Z,16.83
2024-03-07T09:20:18.000Z,17.20
2024-03-07T09:22:45.732Z,13.27
2024-03-07T09:25:14.397Z,19.50
2024-03-07T09:27:42.249Z,14.40
2024-03-07T09:30:13.252Z,15.10
2024-03-07T09:32:41.382Z,16.47
2024-03-07T09:35:15.588Z,23.97
2024-03-07T09:37:44.087Z,14.63
2024-03-07T09:40:15.616Z,13.40
2024-03-07T09:42:46.020Z,12.63
2024-03-07T09:45:17.867Z,14.57
2024-03-07T09:47:51.760Z,11.23
2024-03-07T09:50:26.245Z,12.60
2024-03-07T09:52:55.312Z,9.73
2024-03-07T09:55:26.074Z,12.87
2024-03-07T09:57:54.731Z,12.37
2024-03-07T10:00:30.737Z,8.50
2024-03-07T10:03:06.488Z,11.13
2024-03-07T10:05:34.111Z,9.97
2024-03-07T10:08:02.034Z,10.97
2024-03-07T10:10:29.067Z,14.90
2024-03-07T10:12:55.793Z,14.10
2024-03-07T10:15:23.975Z,8.83
2024-03-07T10:17:51.468Z,9.70
2024-03-07T10:20:22.095Z,7.60
2024-03-07T10:22:52.949Z,8.83
2024-03-07T10:25:23.064Z,9.50
2024-03-07T10:27:50.449Z,10.60
2024-03-07T10:30:22.264Z,8.43
2024-03-07T10:32:54.539Z,8.37
2024-03-07T10:35:28.377Z,10.27
2024-03-07T10:37:55.980Z,9.30
2024-03-07T10:40:23.962Z,9.70
2024-03-07T10:42:53.707Z,11.40
2024-03-07T10:45:22.951Z,13.43
2024-03-07T10:47:57.182Z,10.67
2024-03-07T10:50:36.210Z,10.03
2024-03-07T10:53:16.981Z,10.63
2024-03-07T10:56:01.950Z,8.20
2024-03-07T10:58:44.910Z,12.27
2024-03-07T11:01:14.280Z,8.73
2024-03-07T11:03:42.943Z,10.13
2024-03-07T11:06:12.970Z,9.50
2024-03-07T11:08:40.871Z,9.00
2024-03-07T11:11:07.820Z,7.70
2024-03-07T11:13:35.688Z,7.57
2024-03-07T11:16:04.330Z,7.30
2024-03-07T11:18:31.116Z,8.77
2024-03-07T11:20:59.289Z,6.83
2024-03-07T11:23:42.691Z,8.43
2024-03-07T11:26:12.042Z,11.10
2024-03-07T11:28:41.034Z,10.33
2024-03-07T11:31:15.380Z,8.70
2024-03-07T11:33:45.061Z,8.50
2024-03-07T11:36:13.300Z,7.10
2024-03-07T11:38:50.084Z,7.70
2024-03-07T11:41:20.352Z,9.10
2024-03-07T11:43:47.846Z,6.80
2024-03-07T11:46:18.572Z,10.67
2024-03-07T11:48:46.335Z,5.40
2024-03-07T11:51:19.026Z,7.40
2024-03-07T11:53:49.231Z,7.10
2024-03-07T11:56:18.247Z,7.30
2024-03-07T11:58:53.736Z,7.23
2024-03-07T12:01:26.598Z,8.33
2024-03-07T12:03:57.107Z,12.00
2024-03-07T12:06:24.299Z,8.23
2024-03-07T12:08:51.125Z,10.00
2024-03-07T12:11:18.090Z,8.73
2024-03-07T12:13:44.915Z,7.77
2024-03-07T12:16:11.643Z,10.00
2024-03-07T12:18:39.698Z,16.20
2024-03-07T12:21:10.525Z,12.50
2024-03-07T12:23:41.804Z,10.13
2024-03-07T12:26:08.894Z,7.83
2024-03-07T12:28:36.571Z,8.70
2024-03-07T12:31:04.533Z,9.93
2024-03-07T12:33:34.145Z,12.57
2024-03-07T12:36:09.676Z,7.93
2024-03-07T12:38:38.884Z,9.43
2024-03-07T12:41:15.571Z,8.97
2024-03-07T12:43:43.875Z,9.27
2024-03-07T12:46:17.612Z,7.10
2024-03-07T12:48:47.357Z,10.07
2024-03-07T12:51:19.416Z,7.27
2024-03-07T12:53:47.990Z,10.13
2024-03-07T12:56:19.875Z,9.03
2024-03-07T12:58:48.124Z,8.40
2024-03-07T13:01:15.446Z,8.07
2024-03-07T13:03:45.093Z,6.97
2024-03-07T13:06:12.337Z,8.07
2024-03-07T13:08:39.123Z,10.40
2024-03-07T13:11:07.057Z,6.93
2024-03-07T13:13:33.833Z,5.37
2024-03-07T13:16:00.935Z,8.43
2024-03-07T13:18:27.846Z,12.83
2024-03-07T13:20:54.687Z,9.60
2024-03-07T13:23:21.598Z,9.67
2024-03-07T13:25:50.202Z,14.83
2024-03-07T13:28:26.004Z,7.30
2024-03-07T13:30:56.677Z,8.50
2024-03-07T13:33:26.257Z,12.77
2024-03-07T13:35:54.309Z,8.73
2024-03-07T13:38:21.560Z,9.30
2024-03-07T13:40:48.322Z,8.13
2024-03-07T13:43:16.376Z,8.33
2024-03-07T13:45:45.118Z,10.53
2024-03-07T13:48:15.130Z,8.80
2024-03-07T13:53:30.355Z,13.13
2024-03-07T13:56:13.541Z,9.13
2024-03-07T13:59:05.280Z,7.00
2024-03-07T14:02:15.227Z,9.07
2024-03-07T14:05:00.198Z,8.13
2024-03-07T14:07:50.022Z,8.90
2024-03-07T14:10:54.893Z,10.23
2024-03-07T14:13:53.054Z,10.17
2024-03-07T14:16:37.740Z,10.67
2024-03-07T14:19:32.469Z,10.83
2024-03-07T14:22:36.696Z,11.50
2024-03-07T14:25:24.713Z,8.20
2024-03-07T14:28:30.666Z,8.17
2024-03-07T14:30:58.839Z,10.50
2024-03-07T14:33:34.717Z,8.03
2024-03-07T14:36:06.777Z,8.87
2024-03-07T14:38:52.535Z,6.97
2024-03-07T14:41:23.966Z,8.70
2024-03-07T14:43:52.400Z,7.90
2024-03-07T14:46:19.176Z,8.57
2024-03-07T14:48:45.926Z,8.23
2024-03-07T14:51:15.472Z,14.50
2024-03-07T14:53:43.607Z,7.00
2024-03-07T14:56:11.850Z,8.07
2024-03-07T14:58:39.498Z,11.57
2024-03-07T15:01:07.764Z,8.43
2024-03-07T15:03:34.995Z,10.73
2024-03-07T15:06:04.352Z,10.60
2024-03-07T15:08:31.853Z,8.50
2024-03-07T15:11:15.107Z,6.30
2024-03-07T15:13:43.983Z,7.00
2024-03-07T15:16:22.557Z,13.57
2024-03-07T15:18:56.444Z,10.13
2024-03-07T15:21:23.384Z,10.20
2024-03-07T15:23:50.054Z,6.37
2024-03-07T15:26:19.245Z,11.00
2024-03-07T15:28:46.113Z,11.87
2024-03-07T15:31:14.776Z,8.10
2024-03-07T15:33:44.546Z,7.23
2024-03-07T15:36:11.281Z,8.73
2024-03-07T15:38:39.529Z,8.90
2024-03-07T15:41:09.511Z,10.27
2024-03-07T15:43:36.069Z,9.00
2024-03-07T15:46:05.042Z,11.97
2024-03-07T15:48:32.091Z,10.50
2024-03-07T15:50:59.045Z,7.47
2024-03-07T15:53:26.140Z,8.07
2024-03-07T15:55:52.804Z,10.10
2024-03-07T15:58:19.492Z,13.60
2024-03-07T16:00:49.208Z,6.97
2024-03-07T16:03:16.100Z,9.40
2024-03-07T16:05:48.276Z,21.93
2024-03-07T16:08:19.202Z,8.30
2024-03-07T16:10:47.041Z,11.73
2024-03-07T16:13:15.681Z,7.57
2024-03-07T16:15:46.206Z,11.97
2024-03-07T16:18:15.958Z,6.57
2024-03-07T16:20:48.261Z,9.40
2024-03-07T16:23:17.352Z,7.73
2024-03-07T16:25:44.803Z,9.83
2024-03-07T16:28:12.820Z,7.40
2024-03-07T16:30:45.625Z,8.00
2024-03-07T16:33:13.292Z,8.73
2024-03-07T16:35:40.636Z,12.37
2024-03-07T16:38:11.098Z,9.60
2024-03-07T16:40:42.870Z,6.93
2024-03-07T16:43:13.391Z,9.33
2024-03-07T16:45:40.958Z,9.97
2024-03-07T16:48:11.791Z,8.60
2024-03-07T16:50:43.359Z,9.57
2024-03-07T16:53:11.079Z,11.03
2024-03-07T16:55:38.379Z,8.40
2024-03-07T16:58:09.590Z,10.63
2024-03-07T17:00:41.456Z,5.93
2024-03-07T17:03:11.636Z,11.67
2024-03-07T17:05:44.051Z,12.03
2024-03-07T17:08:17.770Z,14.77
2024-03-07T17:10:46.072Z,12.73
2024-03-07T17:13:14.780Z,9.57
2024-03-07T17:15:45.885Z,9.83
2024-03-07T17:18:17.575Z,8.60
2024-03-07T17:20:45.800Z,8.60
2024-03-07T17:23:13.985Z,12.67
2024-03-07T17:25:40.711Z,14.43
2024-03-07T17:28:08.046Z,9.13
2024-03-07T17:30:36.591Z,14.47
2024-03-07T17:33:07.461Z,9.17
2024-03-07T17:35:37.263Z,9.80
2024-03-07T17:38:04.125Z,7.83
2024-03-07T17:40:34.512Z,8.93
2024-03-07T17:43:04.214Z,12.03
2024-03-07T17:45:36.916Z,9.17
2024-03-07T17:48:06.202Z,9.47
2024-03-07T17:50:34.746Z,12.47
2024-03-07T17:53:10.193Z,9.00
2024-03-07T17:55:42.618Z,8.23
2024-03-07T17:58:10.024Z,13.00
2024-03-07T18:00:37.616Z,9.23
2024-03-07T18:03:06.790Z,9.53
2024-03-07T18:05:38.481Z,10.83
2024-03-07T18:10:51.863Z,11.23
2024-03-07T18:13:21.670Z,9.53
2024-03-07T18:15:50.378Z,11.37
2024-03-07T18:18:18.033Z,8.80
2024-03-07T18:20:46.382Z,16.90
2024-03-07T18:23:14.459Z,8.33
2024-03-07T18:25:42.383Z,9.23
2024-03-07T18:28:09.219Z,7.77
2024-03-07T18:30:36.561Z,9.63
2024-03-07T18:33:09.538Z,6.73
2024-03-07T18:35:40.267Z,10.83
2024-03-07T18:38:08.827Z,11.63
2024-03-07T18:40:35.793Z,11.23
2024-03-07T18:43:08.637Z,10.67
2024-03-07T18:45:37.544Z,6.03
2024-03-07T18:48:09.152Z,11.23
2024-03-07T18:50:47.071Z,9.97
2024-03-07T18:53:16.500Z,9.73
2024-03-07T18:55:48.873Z,9.37
2024-03-07T18:58:17.457Z,9.17
2024-03-07T19:00:50.197Z,6.77
2024-03-07T19:03:22.123Z,12.57
2024-03-07T19:05:51.465Z,5.87
2024-03-07T19:08:21.618Z,10.13
2024-03-07T19:10:49.114Z,8.87
2024-03-07T19:13:17.804Z,9.37
2024-03-07T19:15:45.135Z,9.27
2024-03-07T19:18:14.397Z,12.97
2024-03-07T19:20:42.273Z,9.83
2024-03-07T19:23:12.229Z,8.33
2024-03-07T19:25:40.093Z,6.60
2024-03-07T19:28:17.001Z,10.73
2024-03-07T19:30:46.167Z,11.10
2024-03-07T19:33:17.163Z,9.97
2024-03-07T19:35:57.060Z,10.13
2024-03-07T19:38:29.323Z,7.60
2024-03-07T19:40:56.343Z,6.60
2024-03-07T19:43:26.106Z,10.93
2024-03-07T19:45:57.125Z,9.23
2024-03-07T19:48:26.818Z,8.13
2024-03-07T19:50:57.636Z,14.57
2024-03-07T19:53:24.457Z,9.03
2024-03-07T19:55:51.332Z,8.63
2024-03-07T19:58:20.130Z,8.47
2024-03-07T20:00:49.773Z,8.57
2024-03-07T20:03:22.680Z,6.37
2024-03-07T20:05:50.608Z,9.87
2024-03-07T20:08:17.397Z,10.17
2024-03-07T20:10:49.511Z,8.63
2024-03-07T20:13:17.636Z,8.90
2024-03-07T20:15:46.302Z,11.73
2024-03-07T20:18:14.044Z,7.90
2024-03-07T20:20:45.256Z,11.83
2024-03-07T20:23:15.339Z,8.83
2024-03-07T20:25:43.537Z,15.20
2024-03-07T20:28:10.270Z,9.70
2024-03-07T20:30:38.144Z,13.30
2024-03-07T20:33:06.675Z,10.43
2024-03-07T20:35:34.033Z,9.17
2024-03-07T20:38:04.572Z,13.83
2024-03-07T20:40:31.385Z,11.23
2024-03-07T20:42:59.338Z,7.13
2024-03-07T20:45:26.052Z,7.87
2024-03-07T20:47:52.764Z,10.63
2024-03-07T20:50:30.017Z,13.60
2024-03-07T20:52:56.754Z,7.13
2024-03-07T20:55:28.555Z,10.43
2024-03-07T20:57:59.478Z,11.37
2024-03-07T21:00:28.640Z,6.70
2024-03-07T21:02:58.210Z,9.10
2024-03-07T21:05:25.436Z,12.30
2024-03-07T21:07:54.310Z,6.60
2024-03-07T21:10:25.885Z,9.00
2024-03-07T21:12:54.252Z,6.63
2024-03-07T21:15:21.365Z,11.17
2024-03-07T21:17:49.044Z,9.23
2024-03-07T21:20:20.338Z,7.43
2024-03-07T21:22:51.330Z,5.27
2024-03-07T21:25:20.259Z,14.47
2024-03-07T21:27:51.891Z,8.93
2024-03-07T21:30:18.963Z,6.47
2024-03-07T21:32:46.025Z,7.20
2024-03-07T21:35:13.300Z,11.00
2024-03-07T21:37:44.228Z,8.23
2024-03-07T21:40:17.421Z,10.23
2024-03-07T21:42:44.835Z,8.83
2024-03-07T21:45:16.528Z,17.17
2024-03-07T21:47:44.088Z,10.77
2024-03-07T21:50:19.180Z,12.77
2024-03-07T21:52:49.361Z,8.80
2024-03-07T21:55:22.100Z,9.70
2024-03-07T21:57:49.621Z,9.03
2024-03-07T22:00:17.763Z,11.00
2024-03-07T22:02:57.527Z,9.03
2024-03-07T22:05:29.274Z,9.73
2024-03-07T22:07:56.623Z,14.77
2024-03-07T22:10:23.877Z,6.97
2024-03-07T22:12:52.913Z,12.00
2024-03-07T22:15:22.715Z,9.87
2024-03-07T22:17:54.331Z,7.03
2024-03-07T22:20:24.344Z,14.03
2024-03-07T22:22:51.907Z,8.10
2024-03-07T22:25:21.803Z,8.63
2024-03-07T22:27:52.053Z,6.63
2024-03-07T22:30:23.405Z,7.90
2024-03-07T22:32:51.340Z,6.60
2024-03-07T22:35:18.291Z,8.10
2024-03-07T22:37:48.411Z,7.97
2024-03-07T22:40:17.891Z,5.80
2024-03-07T22:42:45.080Z,9.00
2024-03-07T22:45:14.753Z,8.90
2024-03-07T22:47:42.434Z,7.67
2024-03-07T22:50:23.468Z,15.83
2024-03-07T22:52:56.330Z,10.67
2024-03-07T22:55:23.764Z,13.33
2024-03-07T22:57:50.691Z,8.27
2024-03-07T23:00:24.983Z,6.30
2024-03-07T23:02:52.288Z,8.77
2024-03-07T23:05:21.453Z,8.60
2024-03-07T23:07:48.420Z,6.43
2024-03-07T23:10:16.916Z,9.67
2024-03-07T23:12:46.450Z,7.23
2024-03-07T23:15:14.524Z,9.70
2024-03-07T23:17:46.163Z,5.70
2024-03-07T23:20:21.592Z,9.37
2024-03-07T23:22:49.297Z,14.17
2024-03-07T23:25:16.027Z,8.60
2024-03-07T23:27:46.211Z,15.43
2024-03-07T23:30:17.044Z,11.17
2024-03-07T23:32:43.845Z,10.20
2024-03-07T23:35:13.021Z,13.50
2024-03-07T23:37:43.284Z,11.77
2024-03-07T23:40:14.162Z,9.77
2024-03-07T23:42:45.163Z,14.13
2024-03-07T23:45:15.090Z,5.97
2024-03-07T23:47:43.199Z,6.27
2024-03-07T23:50:14.180Z,6.57
2024-03-07T23:52:45.186Z,8.10
2024-03-07T23:55:14.588Z,8.53
2024-03-07T23:57:43.473Z,9.73
